sensor_id;sensor_type;location;lat;lon;timestamp;temperature;humidity
52979;DHT22;63430;53.186;6.598;2024-03-07T00:01:42;5.20;99.90
52979;DHT22;63430;53.186;6.598;2024-03-07T00:06:44;5.20;99.90
52979;DHT22;63430;53.186;6.598;2024-03-07T00:11:49;5.10;99.90
52979;DHT22;63430;53.186;6.598;2024-03-07T00:16:53;5.00;99.90
52979;DHT22;63430;53.186;6.598;2024-03-07T00:21:55;5.00;99.90
52979;DHT22;63430;53.186;6.598;2024-03-07T00:27:01;4.90;99.90
52979;DHT22;63430;53.186;6.598;2024-03-07T00:32:04;4.80;99.90
52979;DHT22;63430;53.186;6.598;2024-03-07T00:37:07;4.80;99.90
52979;DHT22;63430;53.186;6.598;2024-03-07T00:42:12;4.80;99.90
52979;DHT22;63430;53.186;6.598;2024-03-07T00:47:14;4.80;99.90
52979;DHT22;63430;53.186;6.598;2024-03-07T00:52:17;4.80;99.90
52979;DHT22;63430;53.186;6.598;2024-03-07T00:57:22;4.80;99.90
52979;DHT22;63430;53.186;6.598;2024-03-07T01:02:25;4.80;99.90
52979;DHT22;63430;53.186;6.598;2024-03-07T01:07:28;4.80;99.90
52979;DHT22;63430;53.186;6.598;2024-03-07T01:12:33;4.80;99.90
52979;DHT22;63430;53.186;6.598;2024-03-07T01:17:38;4.70;99.90
52979;DHT22;63430;53.186;6.598;2024-03-07T01:22:40;4.60;99.90
52979;DHT22;63430;53.186;6.598;2024-03-07T01:27:45;4.50;99.90
52979;DHT22;63430;53.186;6.598;2024-03-07T01:32:49;4.40;99.90
52979;DHT22;63430;53.186;6.598;2024-03-07T01:37:52;4.20;99.90
52979;DHT22;63430;53.186;6.598;2024-03-07T01:42:57;4.10;99.90
52979;DHT22;63430;53.186;6.598;2024-03-07T01:48:00;3.90;99.90
52979;DHT22;63430;53.186;6.598;2024-03-07T01:53:03;3.80;99.90
52979;DHT22;63430;53.186;6.598;2024-03-07T01:58:08;3.60;99.90
52979;DHT22;63430;53.186;6.598;2024-03-07T02:03:12;3.50;99.90
52979;DHT22;63430;53.186;6.598;2024-03-07T02:08:15;3.40;99.90
52979;DHT22;63430;53.186;6.598;2024-03-07T02:13:21;3.30;99.90
52979;DHT22;63430;53.186;6.598;2024-03-07T02:18:25;3.20;99.90
52979;DHT22;63430;53.186;6.598;2024-03-07T02:23:31;3.20;99.90
52979;DHT22;63430;53.186;6.598;2024-03-07T02:28:34;3.20;99.90
52979;DHT22;63430;53.186;6.598;2024-03-07T02:33:37;3.10;99.90
52979;DHT22;63430;53.186;6.598;2024-03-07T02:38:42;3.00;99.90
52979;DHT22;63430;53.186;6.598;2024-03-07T02:43:45;2.90;99.90
52979;DHT22;63430;53.186;6.598;2024-03-07T02:48:47;2.80;99.90
52979;DHT22;63430;53.186;6.598;2024-03-07T02:53:53;2.80;99.90
52979;DHT22;63430;53.186;6.598;2024-03-07T02:58:55;2.80;99.90
52979;DHT22;63430;53.186;6.598;2024-03-07T03:03:58;2.70;99.90
52979;DHT22;63430;53.186;6.598;2024-03-07T03:09:03;2.60;99.90
52979;DHT22;63430;53.186;6.598;2024-03-07T03:14:07;2.50;99.90
52979;DHT22;63430;53.186;6.598;2024-03-07T03:19:11;2.50;99.90
52979;DHT22;63430;53.186;6.598;2024-03-07T03:24:16;2.40;99.90
52979;DHT22;63430;53.186;6.598;2024-03-07T03:29:18;2.30;99.90
52979;DHT22;63430;53.186;6.598;2024-03-07T03:34:21;2.30;99.90
52979;DHT22;63430;53.186;6.598;2024-03-07T03:39:27;2.20;99.90
52979;DHT22;63430;53.186;6.598;2024-03-07T03:44:29;2.20;99.90
52979;DHT22;63430;53.186;6.598;2024-03-07T03:49:32;2.20;99.90
52979;DHT22;63430;53.186;6.598;2024-03-07T03:54:37;2.10;99.90
52979;DHT22;63430;53.186;6.598;2024-03-07T03:59:42;2.10;99.90
52979;DHT22;63430;53.186;6.598;2024-03-07T04:04:47;2.10;99.90
52979;DHT22;63430;53.186;6.598;2024-03-07T04:09:52;2.00;99.90
52979;DHT22;63430;53.186;6.598;2024-03-07T04:14:54;2.00;99.90
52979;DHT22;63430;53.186;6.598;2024-03-07T04:19:58;2.00;99.90
52979;DHT22;63430;53.186;6.598;2024-03-07T04:25:05;1.90;99.90
52979;DHT22;63430;53.186;6.598;2024-03-07T04:30:09;1.90;99.90
52979;DHT22;63430;53.186;6.598;2024-03-07T04:35:12;1.90;99.90
52979;DHT22;63430;53.186;6.598;2024-03-07T04:40:21;1.90;99.90
52979;DHT22;63430;53.186;6.598;2024-03-07T04:45:24;1.80;99.90
52979;DHT22;63430;53.186;6.598;2024-03-07T04:50:26;1.80;99.90
52979;DHT22;63430;53.186;6.598;2024-03-07T04:55:32;1.80;99.90
52979;DHT22;63430;53.186;6.598;2024-03-07T05:00:35;1.80;99.90
52979;DHT22;63430;53.186;6.598;2024-03-07T05:05:37;1.80;99.90
52979;DHT22;63430;53.186;6.598;2024-03-07T05:10:43;1.70;99.90
52979;DHT22;63430;53.186;6.598;2024-03-07T05:15:46;1.70;99.90
52979;DHT22;63430;53.186;6.598;2024-03-07T05:20:49;1.60;99.90
52979;DHT22;63430;53.186;6.598;2024-03-07T05:25:55;1.50;99.90
52979;DHT22;63430;53.186;6.598;2024-03-07T05:30:57;1.50;99.90
52979;DHT22;63430;53.186;6.598;2024-03-07T05:36:00;1.50;99.90
52979;DHT22;63430;53.186;6.598;2024-03-07T05:41:19;1.40;99.90
52979;DHT22;63430;53.186;6.598;2024-03-07T05:46:22;1.40;99.90
52979;DHT22;63430;53.186;6.598;2024-03-07T05:51:24;1.40;99.90
52979;DHT22;63430;53.186;6.598;2024-03-07T05:56:29;1.40;99.90
52979;DHT22;63430;53.186;6.598;2024-03-07T06:01:32;1.40;99.90
52979;DHT22;63430;53.186;6.598;2024-03-07T06:06:36;1.50;99.90
52979;DHT22;63430;53.186;6.598;2024-03-07T06:11:41;1.40;99.90
52979;DHT22;63430;53.186;6.598;2024-03-07T06:16:47;1.40;99.90
52979;DHT22;63430;53.186;6.598;2024-03-07T06:21:50;1.40;99.90
52979;DHT22;63430;53.186;6.598;2024-03-07T06:26:57;1.40;99.90
52979;DHT22;63430;53.186;6.598;2024-03-07T06:32:06;1.40;99.90
52979;DHT22;63430;53.186;6.598;2024-03-07T06:37:09;1.40;99.90
52979;DHT22;63430;53.186;6.598;2024-03-07T06:42:14;1.50;99.90
52979;DHT22;63430;53.186;6.598;2024-03-07T06:47:18;1.50;99.90
52979;DHT22;63430;53.186;6.598;2024-03-07T06:52:21;1.60;99.90
52979;DHT22;63430;53.186;6.598;2024-03-07T06:57:26;1.70;99.90
52979;DHT22;63430;53.186;6.598;2024-03-07T07:02:30;1.70;99.90
52979;DHT22;63430;53.186;6.598;2024-03-07T07:07:33;1.70;99.90
52979;DHT22;63430;53.186;6.598;2024-03-07T07:12:40;1.80;99.90
52979;DHT22;63430;53.186;6.598;2024-03-07T07:17:44;1.80;99.90
52979;DHT22;63430;53.186;6.598;2024-03-07T07:22:50;1.80;99.90
52979;DHT22;63430;53.186;6.598;2024-03-07T07:27:55;1.90;99.90
52979;DHT22;63430;53.186;6.598;2024-03-07T07:32:58;1.90;99.90
52979;DHT22;63430;53.186;6.598;2024-03-07T07:38:01;1.90;99.90
52979;DHT22;63430;53.186;6.598;2024-03-07T07:43:06;1.90;99.90
52979;DHT22;63430;53.186;6.598;2024-03-07T07:48:09;1.90;99.90
52979;DHT22;63430;53.186;6.598;2024-03-07T07:53:14;1.90;99.90
52979;DHT22;63430;53.186;6.598;2024-03-07T07:58:22;1.90;99.90
52979;DHT22;63430;53.186;6.598;2024-03-07T08:03:25;1.90;99.90
52979;DHT22;63430;53.186;6.598;2024-03-07T08:08:27;1.90;99.90
52979;DHT22;63430;53.186;6.598;2024-03-07T08:13:33;2.00;99.90
52979;DHT22;63430;53.186;6.598;2024-03-07T08:18:35;2.00;99.90
52979;DHT22;63430;53.186;6.598;2024-03-07T08:23:39;2.10;99.90
52979;DHT22;63430;53.186;6.598;2024-03-07T08:28:44;2.20;99.90
52979;DHT22;63430;53.186;6.598;2024-03-07T08:33:47;2.20;99.90
52979;DHT22;63430;53.186;6.598;2024-03-07T08:38:49;2.10;99.90
52979;DHT22;63430;53.186;6.598;2024-03-07T08:43:57;2.30;99.90
52979;DHT22;63430;53.186;6.598;2024-03-07T08:48:59;2.30;99.90
52979;DHT22;63430;53.186;6.598;2024-03-07T08:54:02;2.30;99.90
52979;DHT22;63430;53.186;6.598;2024-03-07T08:59:07;2.30;99.90
52979;DHT22;63430;53.186;6.598;2024-03-07T09:04:09;2.40;99.90
52979;DHT22;63430;53.186;6.598;2024-03-07T09:09:12;2.40;99.90
52979;DHT22;63430;53.186;6.598;2024-03-07T09:14:19;2.50;99.90
52979;DHT22;63430;53.186;6.598;2024-03-07T09:19:23;2.50;99.90
52979;DHT22;63430;53.186;6.598;2024-03-07T09:24:30;2.50;99.90
52979;DHT22;63430;53.186;6.598;2024-03-07T09:29:36;2.60;99.90
52979;DHT22;63430;53.186;6.598;2024-03-07T09:34:39;2.60;99.90
52979;DHT22;63430;53.186;6.598;2024-03-07T09:39:42;2.70;99.90
52979;DHT22;63430;53.186;6.598;2024-03-07T09:44:50;2.80;99.90
52979;DHT22;63430;53.186;6.598;2024-03-07T09:49:54;2.80;99.90
52979;DHT22;63430;53.186;6.598;2024-03-07T09:54:56;2.90;99.90
52979;DHT22;63430;53.186;6.598;2024-03-07T10:00:06;2.90;99.90
52979;DHT22;63430;53.186;6.598;2024-03-07T10:05:15;3.00;99.90
52979;DHT22;63430;53.186;6.598;2024-03-07T10:10:19;3.00;99.90
52979;DHT22;63430;53.186;6.598;2024-03-07T10:15:27;3.10;99.90
52979;DHT22;63430;53.186;6.598;2024-03-07T10:20:30;3.20;99.90
52979;DHT22;63430;53.186;6.598;2024-03-07T10:25:34;3.30;99.90
52979;DHT22;63430;53.186;6.598;2024-03-07T10:30:42;3.40;99.90
52979;DHT22;63430;53.186;6.598;2024-03-07T10:35:49;3.40;99.90
52979;DHT22;63430;53.186;6.598;2024-03-07T10:40:53;3.40;99.90
52979;DHT22;63430;53.186;6.598;2024-03-07T10:46:02;3.50;99.90
52979;DHT22;63430;53.186;6.598;2024-03-07T10:51:18;3.50;99.90
52979;DHT22;63430;53.186;6.598;2024-03-07T10:56:37;3.70;99.90
52979;DHT22;63430;53.186;6.598;2024-03-07T11:01:49;3.80;99.90
52979;DHT22;63430;53.186;6.598;2024-03-07T11:06:57;4.00;99.90
52979;DHT22;63430;53.186;6.598;2024-03-07T11:12:02;4.20;99.90
52979;DHT22;63430;53.186;6.598;2024-03-07T11:17:09;4.40;99.90
52979;DHT22;63430;53.186;6.598;2024-03-07T11:22:28;4.40;99.90
52979;DHT22;63430;53.186;6.598;2024-03-07T11:27:36;4.60;99.90
52979;DHT22;63430;53.186;6.598;2024-03-07T11:32:43;4.70;99.90
52979;DHT22;63430;53.186;6.598;2024-03-07T11:37:47;4.70;99.90
52979;DHT22;63430;53.186;6.598;2024-03-07T11:42:52;4.80;99.90
52979;DHT22;63430;53.186;6.598;2024-03-07T11:47:58;5.00;99.90
52979;DHT22;63430;53.186;6.598;2024-03-07T11:53:22;5.20;99.90
52979;DHT22;63430;53.186;6.598;2024-03-07T11:58:25;5.30;99.90
52979;DHT22;63430;53.186;6.598;2024-03-07T12:03:32;5.40;99.90
52979;DHT22;63430;53.186;6.598;2024-03-07T12:08:36;5.50;99.90
52979;DHT22;63430;53.186;6.598;2024-03-07T12:13:39;5.70;99.90
52979;DHT22;63430;53.186;6.598;2024-03-07T12:18:46;6.10;99.90
52979;DHT22;63430;53.186;6.598;2024-03-07T12:23:48;6.30;99.90
52979;DHT22;63430;53.186;6.598;2024-03-07T12:28:52;6.70;99.90
52979;DHT22;63430;53.186;6.598;2024-03-07T12:33:59;6.90;99.90
52979;DHT22;63430;53.186;6.598;2024-03-07T12:39:02;6.90;99.90
52979;DHT22;63430;53.186;6.598;2024-03-07T12:44:26;6.80;99.90
52979;DHT22;63430;53.186;6.598;2024-03-07T12:49:33;6.70;99.90
52979;DHT22;63430;53.186;6.598;2024-03-07T12:54:36;6.60;99.90
52979;DHT22;63430;53.186;6.598;2024-03-07T12:59:43;6.50;99.90
52979;DHT22;63430;53.186;6.598;2024-03-07T13:04:48;6.30;99.90
52979;DHT22;63430;53.186;6.598;2024-03-07T13:09:53;6.20;99.90
52979;DHT22;63430;53.186;6.598;2024-03-07T13:14:55;6.10;99.90
52979;DHT22;63430;53.186;6.598;2024-03-07T13:20:06;6.10;99.90
52979;DHT22;63430;53.186;6.598;2024-03-07T13:25:16;6.10;99.90
52979;DHT22;63430;53.186;6.598;2024-03-07T13:30:20;6.20;99.90
52979;DHT22;63430;53.186;6.598;2024-03-07T13:35:32;6.20;99.90
52979;DHT22;63430;53.186;6.598;2024-03-07T13:40:36;6.20;99.90
52979;DHT22;63430;53.186;6.598;2024-03-07T13:45:41;6.30;99.90
52979;DHT22;63430;53.186;6.598;2024-03-07T13:50:49;6.40;99.90
52979;DHT22;63430;53.186;6.598;2024-03-07T14:01:41;6.50;99.90
52979;DHT22;63430;53.186;6.598;2024-03-07T14:07:09;6.60;99.90
52979;DHT22;63430;53.186;6.598;2024-03-07T14:12:37;6.70;99.90
52979;DHT22;63430;53.186;6.598;2024-03-07T14:18:03;6.80;99.90
52979;DHT22;63430;53.186;6.598;2024-03-07T14:23:24;6.90;99.90
52979;DHT22;63430;53.186;6.598;2024-03-07T14:28:49;6.90;99.90
52979;DHT22;63430;53.186;6.598;2024-03-07T14:34:03;6.90;99.90
52979;DHT22;63430;53.186;6.598;2024-03-07T14:39:11;7.00;99.90
52979;DHT22;63430;53.186;6.598;2024-03-07T14:44:17;7.00;99.90
52979;DHT22;63430;53.186;6.598;2024-03-07T14:49:21;7.10;99.90
52979;DHT22;63430;53.186;6.598;2024-03-07T14:54:29;7.10;99.90
52979;DHT22;63430;53.186;6.598;2024-03-07T14:59:33;7.00;99.90
52979;DHT22;63430;53.186;6.598;2024-03-07T15:04:36;7.00;99.90
52979;DHT22;63430;53.186;6.598;2024-03-07T15:09:41;7.10;99.90
52979;DHT22;63430;53.186;6.598;2024-03-07T15:14:44;7.10;99.90
52979;DHT22;63430;53.186;6.598;2024-03-07T15:19:51;7.20;99.90
52979;DHT22;63430;53.186;6.598;2024-03-07T15:24:57;7.10;99.90
52979;DHT22;63430;53.186;6.598;2024-03-07T15:30:01;7.20;99.90
52979;DHT22;63430;53.186;6.598;2024-03-07T15:35:06;7.20;99.90
52979;DHT22;63430;53.186;6.598;2024-03-07T15:40:17;7.20;99.90
52979;DHT22;63430;53.186;6.598;2024-03-07T15:45:20;7.10;99.90
52979;DHT22;63430;53.186;6.598;2024-03-07T15:50:25;7.10;99.90
52979;DHT22;63430;53.186;6.598;2024-03-07T15:55:34;7.10;99.90
52979;DHT22;63430;53.186;6.598;2024-03-07T16:00:40;7.00;99.90
52979;DHT22;63430;53.186;6.598;2024-03-07T16:05:43;7.00;99.90
52979;DHT22;63430;53.186;6.598;2024-03-07T16:10:52;7.00;99.90
52979;DHT22;63430;53.186;6.598;2024-03-07T16:15:57;7.00;99.90
52979;DHT22;63430;53.186;6.598;2024-03-07T16:21:03;6.90;99.90
52979;DHT22;63430;53.186;6.598;2024-03-07T16:26:11;6.90;99.90
52979;DHT22;63430;53.186;6.598;2024-03-07T16:31:14;6.80;99.90
52979;DHT22;63430;53.186;6.598;2024-03-07T16:36:18;6.70;99.90
52979;DHT22;63430;53.186;6.598;2024-03-07T16:41:24;6.70;99.90
52979;DHT22;63430;53.186;6.598;2024-03-07T16:46:26;6.60;99.90
52979;DHT22;63430;53.186;6.598;2024-03-07T16:51:29;6.60;99.90
52979;DHT22;63430;53.186;6.598;2024-03-07T16:56:39;6.50;99.90
52979;DHT22;63430;53.186;6.598;2024-03-07T17:01:43;6.50;99.90
52979;DHT22;63430;53.186;6.598;2024-03-07T17:06:47;6.40;99.90
52979;DHT22;63430;53.186;6.598;2024-03-07T17:11:53;6.30;99.90
52979;DHT22;63430;53.186;6.598;2024-03-07T17:16:56;6.10;99.90
52979;DHT22;63430;53.186;6.598;2024-03-07T17:21:59;6.00;99.90
52979;DHT22;63430;53.186;6.598;2024-03-07T17:27:04;5.90;99.90
52979;DHT22;63430;53.186;6.598;2024-03-07T17:32:08;5.90;99.90
52979;DHT22;63430;53.186;6.598;2024-03-07T17:37:13;5.80;99.90
52979;DHT22;63430;53.186;6.598;2024-03-07T17:42:21;5.70;99.90
52979;DHT22;63430;53.186;6.598;2024-03-07T17:47:24;5.70;99.90
52979;DHT22;63430;53.186;6.598;2024-03-07T17:52:31;5.70;99.90
52979;DHT22;63430;53.186;6.598;2024-03-07T17:57:39;5.60;99.90
52979;DHT22;63430;53.186;6.598;2024-03-07T18:02:44;5.50;99.90
52979;DHT22;63430;53.186;6.598;2024-03-07T18:07:50;5.50;99.90
52979;DHT22;63430;53.186;6.598;2024-03-07T18:12:59;5.40;99.90
52979;DHT22;63430;53.186;6.598;2024-03-07T18:18:04;5.40;99.90
52979;DHT22;63430;53.186;6.598;2024-03-07T18:23:08;5.40;99.90
52979;DHT22;63430;53.186;6.598;2024-03-07T18:28:13;5.30;99.90
52979;DHT22;63430;53.186;6.598;2024-03-07T18:33:17;5.10;99.90
52979;DHT22;63430;53.186;6.598;2024-03-07T18:38:22;4.80;99.90
52979;DHT22;63430;53.186;6.598;2024-03-07T18:43:27;4.60;99.90
52979;DHT22;63430;53.186;6.598;2024-03-07T18:48:30;4.40;99.90
52979;DHT22;63430;53.186;6.598;2024-03-07T18:53:34;4.20;99.90
52979;DHT22;63430;53.186;6.598;2024-03-07T18:58:40;4.10;99.90
52979;DHT22;63430;53.186;6.598;2024-03-07T19:03:48;4.00;99.90
52979;DHT22;63430;53.186;6.598;2024-03-07T19:08:51;3.90;99.90
52979;DHT22;63430;53.186;6.598;2024-03-07T19:13:56;3.80;99.90
52979;DHT22;63430;53.186;6.598;2024-03-07T19:18:59;3.80;99.90
52979;DHT22;63430;53.186;6.598;2024-03-07T19:24:04;3.70;99.90
52979;DHT22;63430;53.186;6.598;2024-03-07T19:29:10;3.60;99.90
52979;DHT22;63430;53.186;6.598;2024-03-07T19:34:15;3.50;99.90
52979;DHT22;63430;53.186;6.598;2024-03-07T19:39:24;3.40;99.90
52979;DHT22;63430;53.186;6.598;2024-03-07T19:44:32;3.30;99.90
52979;DHT22;63430;53.186;6.598;2024-03-07T19:49:35;3.20;99.90
52979;DHT22;63430;53.186;6.598;2024-03-07T19:54:38;3.20;99.90
52979;DHT22;63430;53.186;6.598;2024-03-07T19:59:44;3.20;99.90
52979;DHT22;63430;53.186;6.598;2024-03-07T20:04:46;3.20;99.90
52979;DHT22;63430;53.186;6.598;2024-03-07T20:09:49;3.10;99.90
52979;DHT22;63430;53.186;6.598;2024-03-07T20:14:55;3.10;99.90
52979;DHT22;63430;53.186;6.598;2024-03-07T20:19:58;3.00;99.90
52979;DHT22;63430;53.186;6.598;2024-03-07T20:25:00;3.00;99.90
52979;DHT22;63430;53.186;6.598;2024-03-07T20:30:09;3.00;99.90
52979;DHT22;63430;53.186;6.598;2024-03-07T20:35:15;2.90;99.90
52979;DHT22;63430;53.186;6.598;2024-03-07T20:40:21;2.90;99.90
52979;DHT22;63430;53.186;6.598;2024-03-07T20:45:29;3.00;99.90
52979;DHT22;63430;53.186;6.598;2024-03-07T20:50:32;3.00;99.90
52979;DHT22;63430;53.186;6.598;2024-03-07T20:55:42;3.00;99.90
52979;DHT22;63430;53.186;6.598;2024-03-07T21:00:47;2.90;99.90
52979;DHT22;63430;53.186;6.598;2024-03-07T21:05:51;2.90;99.90
52979;DHT22;63430;53.186;6.598;2024-03-07T21:10:54;2.80;99.90
52979;DHT22;63430;53.186;6.598;2024-03-07T21:16:00;2.70;99.90
52979;DHT22;63430;53.186;6.598;2024-03-07T21:21:03;2.70;99.90
52979;DHT22;63430;53.186;6.598;2024-03-07T21:26:06;2.60;99.90
52979;DHT22;63430;53.186;6.598;2024-03-07T21:31:12;2.60;99.90
52979;DHT22;63430;53.186;6.598;2024-03-07T21:36:17;2.50;99.90
52979;DHT22;63430;53.186;6.598;2024-03-07T21:41:22;2.40;99.90
52979;DHT22;63430;53.186;6.598;2024-03-07T21:46:27;2.40;99.90
52979;DHT22;63430;53.186;6.598;2024-03-07T21:51:33;2.40;99.90
52979;DHT22;63430;53.186;6.598;2024-03-07T21:56:35;2.30;99.90
52979;DHT22;63430;53.186;6.598;2024-03-07T22:01:41;2.30;99.90
52979;DHT22;63430;53.186;6.598;2024-03-07T22:06:44;2.30;99.90
52979;DHT22;63430;53.186;6.598;2024-03-07T22:11:47;2.30;99.90
52979;DHT22;63430;53.186;6.598;2024-03-07T22:16:53;2.30;99.90
52979;DHT22;63430;53.186;6.598;2024-03-07T22:21:56;2.30;99.90
52979;DHT22;63430;53.186;6.598;2024-03-07T22:26:59;2.20;99.90
52979;DHT22;63430;53.186;6.598;2024-03-07T22:32:05;2.20;99.90
52979;DHT22;63430;53.186;6.598;2024-03-07T22:37:14;2.20;99.90
52979;DHT22;63430;53.186;6.598;2024-03-07T22:42:20;2.20;99.90
52979;DHT22;63430;53.186;6.598;2024-03-07T22:47:25;2.10;99.90
52979;DHT22;63430;53.186;6.598;2024-03-07T22:52:28;2.10;99.90
52979;DHT22;63430;53.186;6.598;2024-03-07T22:57:30;2.00;99.90
52979;DHT22;63430;53.186;6.598;2024-03-07T23:02:36;2.00;99.90
52979;DHT22;63430;53.186;6.598;2024-03-07T23:07:39;2.00;99.90
52979;DHT22;63430;53.186;6.598;2024-03-07T23:12:42;2.00;99.90
52979;DHT22;63430;53.186;6.598;2024-03-07T23:17:50;2.00;99.90
52979;DHT22;63430;53.186;6.598;2024-03-07T23:22:53;2.00;99.90
52979;DHT22;63430;53.186;6.598;2024-03-07T23:28:02;2.10;99.90
52979;DHT22;63430;53.186;6.598;2024-03-07T23:33:07;2.00;99.90
52979;DHT22;63430;53.186;6.598;2024-03-07T23:38:10;2.00;99.90
52979;DHT22;63430;53.186;6.598;2024-03-07T23:43:14;2.00;99.90
52979;DHT22;63430;53.186;6.598;2024-03-07T23:48:19;2.00;99.90
52979;DHT22;63430;53.186;6.598;2024-03-07T23:53:23;2.00;99.90
52979;DHT22;63430;53.186;6.598;2024-03-07T23:58:25;2.00;99.90
